Temp: 2.2°C   Baro: 1026.9mb
  Wind: 0.0mph   Dir: ESE (123°)
  Rain: 0.0mm (0.0mm/hr)
  Solar: 86W/m2  Hum: 97%

Historic data

Bath Spa Weather Station Historical Data
Daily Summary for September 28, 2022 Units:  Metric    English   Both
Daily Weekly Monthly Yearly Custom
  High: Low: Average:
Temperature: 15.8 °C 5.7 °C 10.1 °C
Dew Point: 9.3 °C 4.2 °C 6.9 °C
Humidity: 91% 61.2% 81%
Wind Speed: 11.9km/h 0km/h 3.2km/h
Wind Gust: 20.9km/h - -
Wind- - WNW
Pressure: 1002.3 hPa 1001.2 hPa -
Precipitation: 0 mm    
Historical Graphs
 
 
Tabular Data for September 28, 2022
Time Temperature Dew Point Pressure Wind Wind Speed Wind Gust Humidity Rainfall Rate (Hourly) solar
00:09 8.4 °C 5.9 °C 1002.3 hPa Calm     84% 0 mm 0 W/m2
00:14 8.4 °C 5.9 °C 1002.3 hPa Calm     84% 0 mm 0 W/m2
00:19 8.3 °C 5.8 °C 1001.9 hPa Calm     84% 0 mm 0 W/m2
00:24 8.3 °C 5.8 °C 1001.9 hPa Calm     84% 0 mm 0 W/m2
00:29 8.2 °C 5.7 °C 1001.9 hPa Calm     84% 0 mm 0 W/m2
00:34 8.1 °C 5.6 °C 1001.9 hPa Calm     84.2% 0 mm 0 W/m2
00:39 8.1 °C 5.7 °C 1001.9 hPa Calm     85% 0 mm 0 W/m2
00:44 8 °C 5.6 °C 1001.9 hPa Calm     85% 0 mm 0 W/m2
00:49 7.9 °C 5.5 °C 1001.9 hPa Calm     85% 0 mm 0 W/m2
00:54 7.9 °C 5.5 °C 1001.9 hPa NW 1.1 km/h 1.6 km/h 85% 0 mm 0 W/m2
00:59 7.8 °C 5.4 °C 1001.9 hPa NW 2.9 km/h 4.8 km/h 85.2% 0 mm 0 W/m2
01:04 7.7 °C 5.5 °C 1001.9 hPa NW 2.9 km/h 4.8 km/h 86% 0 mm 0 W/m2
01:09 7.6 °C 5.4 °C 1001.9 hPa NW 1.8 km/h 3.2 km/h 86% 0 mm 0 W/m2
01:14 7.6 °C 5.4 °C 1001.9 hPa NW 3.5 km/h 6.4 km/h 86% 0 mm 0 W/m2
01:19 7.6 °C 5.4 °C 1001.9 hPa NW 2.9 km/h 4.8 km/h 86% 0 mm 0 W/m2
01:24 7.6 °C 5.4 °C 1001.9 hPa NW 2.1 km/h 4.8 km/h 86.4% 0 mm 0 W/m2
01:29 7.5 °C 5.3 °C 1001.9 hPa NW 2.1 km/h 3.2 km/h 86.4% 0 mm 0 W/m2
01:34 7.4 °C 5.4 °C 1001.9 hPa NW 4 km/h 6.4 km/h 87% 0 mm 0 W/m2
01:39 7.4 °C 5.4 °C 1001.9 hPa NW 3.4 km/h 6.4 km/h 87% 0 mm 0 W/m2
01:44 7.4 °C 5.4 °C 1001.9 hPa NW 1.4 km/h 6.4 km/h 87% 0 mm 0 W/m2
01:49 7.3 °C 5.3 °C 1001.9 hPa NW 2.7 km/h 4.8 km/h 87% 0 mm 0 W/m2
01:54 7.2 °C 5.2 °C 1001.9 hPa NW 3.2 km/h 6.4 km/h 87% 0 mm 0 W/m2
01:59 7 °C 5 °C 1001.9 hPa NW 1.4 km/h 4.8 km/h 87% 0 mm 0 W/m2
02:04 6.8 °C 4.8 °C 1001.9 hPa NW 2.7 km/h 4.8 km/h 87% 0 mm 0 W/m2
02:09 6.7 °C 4.8 °C 1001.9 hPa NW 2.9 km/h 4.8 km/h 87.8% 0 mm 0 W/m2
02:14 6.6 °C 4.8 °C 1001.9 hPa NW 2.3 km/h 4.8 km/h 88% 0 mm 0 W/m2
02:19 6.5 °C 4.7 °C 1001.9 hPa NW 1 km/h 3.2 km/h 88% 0 mm 0 W/m2
02:24 6.5 °C 4.7 °C 1001.9 hPa NW 0.6 km/h 3.2 km/h 88% 0 mm 0 W/m2
02:29 6.3 °C 4.6 °C 1001.9 hPa NW 0.3 km/h 1.6 km/h 88% 0 mm 0 W/m2
02:34 6.3 °C 4.5 °C 1001.9 hPa Calm   1.6 km/h 88% 0 mm 0 W/m2
02:39 6.3 °C 4.6 °C 1001.9 hPa Calm   1.6 km/h 88.4% 0 mm 0 W/m2
02:44 6.3 °C 4.6 °C 1001.9 hPa Calm     88.6% 0 mm 0 W/m2
02:49 6.3 °C 4.6 °C 1001.9 hPa NW 2.6 km/h 3.2 km/h 88.8% 0 mm 0 W/m2
02:54 6.3 °C 4.6 °C 1001.9 hPa NW 1.4 km/h 3.2 km/h 89% 0 mm 0 W/m2
02:59 6.3 °C 4.6 °C 1001.9 hPa NW 0.6 km/h 3.2 km/h 89% 0 mm 0 W/m2
03:04 6.3 °C 4.6 °C 1001.6 hPa NW 0.8 km/h 3.2 km/h 89% 0 mm 0 W/m2
03:09 6.3 °C 4.6 °C 1001.6 hPa Calm   1.6 km/h 89% 0 mm 0 W/m2
03:14 6.2 °C 4.5 °C 1001.6 hPa Calm     89% 0 mm 0 W/m2
03:19 6.2 °C 4.5 °C 1001.9 hPa NW 1.6 km/h 4.8 km/h 89% 0 mm 0 W/m2
03:24 6.2 °C 4.5 °C 1001.6 hPa Calm   3.2 km/h 89% 0 mm 0 W/m2
03:29 6.2 °C 4.5 °C 1001.6 hPa Calm     89% 0 mm 0 W/m2
03:34 6.2 °C 4.5 °C 1001.6 hPa Calm     89% 0 mm 0 W/m2
03:39 6.2 °C 4.4 °C 1001.6 hPa NW 1.3 km/h 3.2 km/h 89% 0 mm 0 W/m2
03:44 6.1 °C 4.4 °C 1001.6 hPa NW 1.1 km/h 3.2 km/h 89% 0 mm 0 W/m2
03:49 6.1 °C 4.4 °C 1001.6 hPa NW 0.6 km/h 3.2 km/h 89% 0 mm 0 W/m2
03:54 6 °C 4.4 °C 1001.6 hPa NW 1.3 km/h 3.2 km/h 89.6% 0 mm 0 W/m2
03:59 5.9 °C 4.4 °C 1001.6 hPa NW 2.9 km/h 4.8 km/h 90% 0 mm 0 W/m2
04:04 5.8 °C 4.3 °C 1001.6 hPa NW 2.6 km/h 4.8 km/h 90% 0 mm 0 W/m2
04:09 5.9 °C 4.4 °C 1001.6 hPa NW 4.3 km/h 6.4 km/h 90% 0 mm 0 W/m2
04:14 6 °C 4.5 °C 1001.6 hPa NW 4.3 km/h 6.4 km/h 90% 0 mm 0 W/m2
04:19 6.2 °C 4.7 °C 1001.6 hPa NW 4.2 km/h 6.4 km/h 90% 0 mm 0 W/m2
04:24 6.3 °C 4.8 °C 1001.9 hPa NW 3.4 km/h 6.4 km/h 90% 0 mm 0 W/m2
04:28 6.4 °C 4.9 °C 1001.6 hPa NW 0.8 km/h 4.8 km/h 90% 0 mm 0 W/m2
04:34 6.4 °C 4.9 °C 1001.9 hPa NW 1.3 km/h 6.4 km/h 90% 0 mm 0 W/m2
04:39 6.4 °C 4.9 °C 1001.9 hPa Calm     90% 0 mm 0 W/m2
04:44 6.3 °C 4.8 °C 1001.9 hPa Calm   1.6 km/h 90% 0 mm 0 W/m2
04:49 6.2 °C 4.7 °C 1001.9 hPa Calm   1.6 km/h 90% 0 mm 0 W/m2
04:54 6.2 °C 4.7 °C 1001.9 hPa Calm     90% 0 mm 0 W/m2
04:59 6.1 °C 4.6 °C 1001.9 hPa Calm   1.6 km/h 90% 0 mm 0 W/m2
05:04 6.1 °C 4.6 °C 1001.9 hPa Calm   1.6 km/h 90% 0 mm 0 W/m2
05:09 6.1 °C 4.6 °C 1001.9 hPa NW 1.9 km/h 3.2 km/h 90% 0 mm 0 W/m2
05:14 6.1 °C 4.6 °C 1001.9 hPa Calm   1.6 km/h 90% 0 mm 0 W/m2
05:19 6 °C 4.5 °C 1001.9 hPa Calm     90% 0 mm 0 W/m2
05:24 5.9 °C 4.4 °C 1001.9 hPa NW 1.1 km/h 3.2 km/h 90% 0 mm 0 W/m2
05:29 5.9 °C 4.4 °C 1001.9 hPa Calm   3.2 km/h 90% 0 mm 0 W/m2
05:34 5.9 °C 4.4 °C 1001.9 hPa Calm   1.6 km/h 90% 0 mm 0 W/m2
05:39 5.9 °C 4.4 °C 1001.9 hPa NW 0.8 km/h 3.2 km/h 90% 0 mm 0 W/m2
05:44 6 °C 4.5 °C 1001.9 hPa NW 0.6 km/h 3.2 km/h 90% 0 mm 0 W/m2
05:49 6 °C 4.5 °C 1001.9 hPa Calm     90% 0 mm 0 W/m2
05:54 6 °C 4.5 °C 1001.9 hPa Calm     90% 0 mm 0 W/m2
05:59 5.9 °C 4.4 °C 1001.9 hPa Calm     90% 0 mm 0 W/m2
06:04 5.9 °C 4.4 °C 1001.9 hPa Calm     90% 0 mm 0 W/m2
06:09 5.9 °C 4.4 °C 1001.9 hPa Calm     90% 0 mm 0 W/m2
06:14 5.9 °C 4.4 °C 1001.9 hPa Calm   1.6 km/h 90% 0 mm 0 W/m2
06:19 5.9 °C 4.4 °C 1001.9 hPa Calm     90% 0 mm 0 W/m2
06:24 5.8 °C 4.3 °C 1001.9 hPa Calm     90% 0 mm 0 W/m2
06:29 5.7 °C 4.2 °C 1001.9 hPa Calm     90% 0 mm 0 W/m2
06:34 5.8 °C 4.3 °C 1001.9 hPa NW 0.3 km/h 3.2 km/h 90.6% 0 mm 0 W/m2
06:39 5.8 °C 4.4 °C 1001.9 hPa Calm     91% 0 mm 0 W/m2
06:44 5.7 °C 4.3 °C 1001.9 hPa NW 0.3 km/h 1.6 km/h 91% 0 mm 0 W/m2
06:49 5.7 °C 4.3 °C 1001.9 hPa Calm     91% 0 mm 0 W/m2
06:54 6.3 °C 4.9 °C 1001.9 hPa Calm     91% 0 mm 0 W/m2
06:59 7.2 °C 5.8 °C 1001.9 hPa Calm     91% 0 mm 0 W/m2
07:04 7.6 °C 6.2 °C 1001.9 hPa Calm     91% 0 mm 0 W/m2
07:09 7.7 °C 6.3 °C 1001.9 hPa Calm     91% 0 mm 5 W/m2
07:14 7.9 °C 6.5 °C 1001.9 hPa Calm     91% 0 mm 5 W/m2
07:19 7.8 °C 6.4 °C 1001.9 hPa Calm     91% 0 mm 7 W/m2
07:23 7.9 °C 6.5 °C 1001.9 hPa Calm     91% 0 mm 9 W/m2
07:29 8 °C 6.6 °C 1001.9 hPa Calm     90.8% 0 mm 11 W/m2
07:34 8 °C 6.5 °C 1001.9 hPa Calm     90.2% 0 mm 14 W/m2
07:39 8.1 °C 6.6 °C 1001.9 hPa Calm     90% 0 mm 16 W/m2
07:44 8.3 °C 6.8 °C 1001.9 hPa Calm     90% 0 mm 18 W/m2
07:49 8.3 °C 6.8 °C 1001.9 hPa Calm     90% 0 mm 18 W/m2
07:54 8.3 °C 6.8 °C 1001.9 hPa Calm     90% 0 mm 19 W/m2
07:59 8.2 °C 6.6 °C 1001.9 hPa Calm     89.6% 0 mm 19 W/m2
08:04 8.1 °C 6.4 °C 1001.9 hPa Calm     89% 0 mm 19 W/m2
08:09 8.2 °C 6.7 °C 1001.9 hPa Calm     89.6% 0 mm 23 W/m2
08:14 8.2 °C 6.5 °C 1001.9 hPa Calm     89.2% 0 mm 26 W/m2
08:19 8.6 °C 7.1 °C 1001.9 hPa Calm     90% 0 mm 30 W/m2
08:24 9.2 °C 7.6 °C 1001.9 hPa Calm     90% 0 mm 35 W/m2
08:29 9.6 °C 7.9 °C 1001.9 hPa Calm     89.6% 0 mm 35 W/m2
08:34 9.4 °C 7.7 °C 1002.3 hPa Calm     89% 0 mm 32 W/m2
08:39 9.7 °C 7.9 °C 1002.3 hPa Calm     89% 0 mm 42 W/m2
08:44 9.7 °C 7.9 °C 1002.3 hPa Calm     88.4% 0 mm 95 W/m2
08:49 10.1 °C 8.2 °C 1002.3 hPa Calm     88% 0 mm 120 W/m2
08:54 10.6 °C 8.7 °C 1002.3 hPa Calm     87.8% 0 mm 132 W/m2
08:59 10.5 °C 8.3 °C 1002.3 hPa Calm     86.6% 0 mm 104 W/m2
09:04 10.7 °C 8.5 °C 1002.3 hPa Calm     86% 0 mm 142 W/m2
09:09 11.1 °C 8.8 °C 1002.3 hPa Calm     85.8% 0 mm 113 W/m2
09:14 11.1 °C 8.7 °C 1002.3 hPa Calm     85% 0 mm 153 W/m2
09:19 11.1 °C 8.7 °C 1002.3 hPa Calm     85% 0 mm 241 W/m2
09:24 10.8 °C 8.1 °C 1002.3 hPa Calm     83.4% 0 mm 163 W/m2
09:29 10.7 °C 7.9 °C 1002.3 hPa Calm     83% 0 mm 178 W/m2
09:34 10.8 °C 7.9 °C 1002.3 hPa Calm     83% 0 mm 251 W/m2
09:39 10.8 °C 8 °C 1002.3 hPa Calm     83% 0 mm 214 W/m2
09:44 10.9 °C 8.1 °C 1002.3 hPa Calm     82.8% 0 mm 169 W/m2
09:49 10.9 °C 7.9 °C 1002.3 hPa Calm     82% 0 mm 285 W/m2
09:54 11.5 °C 8.7 °C 1002.3 hPa Calm     82.8% 0 mm 526 W/m2
09:59 12.2 °C 9.3 °C 1002.3 hPa NW 3.9 km/h 8 km/h 82.8% 0 mm 343 W/m2
10:04 11.9 °C 8.7 °C 1002.3 hPa WNW 6.4 km/h 12.9 km/h 80.4% 0 mm 413 W/m2
10:09 12 °C 8.6 °C 1002.3 hPa NW 8.5 km/h 14.5 km/h 79.5% 0 mm 410 W/m2
10:14 12.2 °C 8.6 °C 1002.3 hPa WNW 7.9 km/h 12.9 km/h 78.6% 0 mm 464 W/m2
10:19 12.3 °C 8.4 °C 1002.3 hPa NW 8.4 km/h 17.7 km/h 77.2% 0 mm 480 W/m2
10:24 12.3 °C 8.3 °C 1002.3 hPa NW 7.7 km/h 14.5 km/h 76.2% 0 mm 415 W/m2
10:29 12.4 °C 8.3 °C 1002.3 hPa NW 7.9 km/h 16.1 km/h 75.8% 0 mm 418 W/m2
10:34 12.5 °C 8.2 °C 1002.3 hPa NNW 9.8 km/h 17.7 km/h 75% 0 mm 445 W/m2
10:39 12.6 °C 8.1 °C 1002.3 hPa NW 7.6 km/h 17.7 km/h 74% 0 mm 461 W/m2
10:44 12.7 °C 8.2 °C 1002.3 hPa WNW 7.4 km/h 17.7 km/h 74% 0 mm 455 W/m2
10:49 12.9 °C 8.3 °C 1002.3 hPa NNW 6.4 km/h 14.5 km/h 73.6% 0 mm 482 W/m2
10:54 13 °C 8.3 °C 1001.9 hPa NNW 8.7 km/h 14.5 km/h 73% 0 mm 483 W/m2
10:58 12.9 °C 8.1 °C 1001.9 hPa NW 10.9 km/h 17.7 km/h 72.8% 0 mm 499 W/m2
11:04 12.6 °C 7.8 °C 1001.9 hPa WNW 7.7 km/h 16.1 km/h 72.4% 0 mm 413 W/m2
11:09 12.7 °C 8 °C 1001.9 hPa WNW 5 km/h 14.5 km/h 73% 0 mm 506 W/m2
11:14 12.9 °C 8.3 °C 1001.9 hPa NNW 7.1 km/h 14.5 km/h 73% 0 mm 589 W/m2
11:19 13.2 °C 8.3 °C 1001.9 hPa NW 8.7 km/h 16.1 km/h 72% 0 mm 589 W/m2
11:24 13.2 °C 8.2 °C 1001.9 hPa West 9 km/h 16.1 km/h 71.2% 0 mm 677 W/m2
11:29 13.3 °C 8.3 °C 1001.9 hPa West 5 km/h 12.9 km/h 71.6% 0 mm 652 W/m2
11:34 13.3 °C 8.3 °C 1001.9 hPa WNW 5.8 km/h 11.3 km/h 71.4% 0 mm 77 W/m2
11:39 13.1 °C 8.2 °C 1001.9 hPa NW 10 km/h 19.3 km/h 72% 0 mm 70 W/m2
11:44 12.8 °C 7.8 °C 1001.9 hPa WNW 7.1 km/h 19.3 km/h 71.6% 0 mm 584 W/m2
11:49 13.1 °C 8 °C 1001.9 hPa WNW 6.4 km/h 17.7 km/h 71% 0 mm 687 W/m2
11:54 13.5 °C 8.1 °C 1001.9 hPa WNW 10 km/h 20.9 km/h 69.8% 0 mm 742 W/m2
11:59 13.7 °C 8.1 °C 1001.9 hPa NNW 7.2 km/h 14.5 km/h 68.8% 0 mm 742 W/m2
12:04 13.6 °C 7.8 °C 1001.9 hPa WNW 7.9 km/h 14.5 km/h 68.2% 0 mm 213 W/m2
12:09 13.4 °C 7.6 °C 1001.9 hPa WNW 6.4 km/h 16.1 km/h 68% 0 mm 156 W/m2
12:14 13.4 °C 7.6 °C 1001.9 hPa WNW 4.5 km/h 12.9 km/h 68% 0 mm 385 W/m2
12:19 13.4 °C 7.7 °C 1001.9 hPa NW 7.7 km/h 12.9 km/h 68.2% 0 mm 779 W/m2
12:24 13.9 °C 8.1 °C 1001.9 hPa WNW 7.2 km/h 16.1 km/h 67.8% 0 mm 812 W/m2
12:29 14.2 °C 8.2 °C 1001.9 hPa WNW 7.4 km/h 14.5 km/h 67% 0 mm 775 W/m2
12:34 14.3 °C 8.1 °C 1001.9 hPa NNW 11.6 km/h 17.7 km/h 66.4% 0 mm 364 W/m2
12:39 14 °C 7.8 °C 1001.9 hPa NW 7.1 km/h 16.1 km/h 66.2% 0 mm 366 W/m2
12:44 14.1 °C 8.1 °C 1001.9 hPa NNW 4.5 km/h 9.7 km/h 67% 0 mm 422 W/m2
12:49 14.2 °C 8 °C 1001.9 hPa NW 7.6 km/h 17.7 km/h 66.4% 0 mm 230 W/m2
12:54 14.2 °C 8.1 °C 1001.6 hPa NW 6.1 km/h 9.7 km/h 66.6% 0 mm 269 W/m2
12:59 14.2 °C 7.9 °C 1001.6 hPa North 7.6 km/h 17.7 km/h 66.4% 0 mm 186 W/m2
13:04 14 °C 7.8 °C 1001.6 hPa NW 5.1 km/h 11.3 km/h 66.2% 0 mm 218 W/m2
13:09 13.9 °C 7.8 °C 1001.6 hPa NW 5.5 km/h 16.1 km/h 66.2% 0 mm 283 W/m2
13:14 13.8 °C 7.6 °C 1001.6 hPa WNW 8.7 km/h 17.7 km/h 66% 0 mm 367 W/m2
13:19 13.7 °C 7.5 °C 1001.6 hPa NW 10.1 km/h 17.7 km/h 66% 0 mm 378 W/m2
13:24 13.9 °C 7.7 °C 1001.6 hPa NW 6.1 km/h 16.1 km/h 66% 0 mm 763 W/m2
13:29 14.3 °C 7.8 °C 1001.6 hPa NW 10.6 km/h 17.7 km/h 65.4% 0 mm 708 W/m2
13:34 14.3 °C 7.7 °C 1001.6 hPa WNW 10 km/h 19.3 km/h 64.8% 0 mm 724 W/m2
13:39 14.5 °C 8 °C 1001.6 hPa WNW 8.9 km/h 14.5 km/h 65% 0 mm 747 W/m2
13:44 14.7 °C 8.1 °C 1001.2 hPa West 6.4 km/h 14.5 km/h 64.2% 0 mm 752 W/m2
13:49 14.8 °C 8.2 °C 1001.2 hPa WNW 4 km/h 11.3 km/h 64.4% 0 mm 735 W/m2
13:54 15.1 °C 8.1 °C 1001.2 hPa WNW 6.8 km/h 16.1 km/h 62.8% 0 mm 786 W/m2
13:59 15.2 °C 7.9 °C 1001.2 hPa WNW 9.5 km/h 16.1 km/h 61.6% 0 mm 770 W/m2
14:04 15.3 °C 8.1 °C 1001.2 hPa West 7.1 km/h 16.1 km/h 61.8% 0 mm 728 W/m2
14:09 15.6 °C 8.2 °C 1001.2 hPa NW 5.1 km/h 16.1 km/h 61.5% 0 mm 696 W/m2
14:14 15.8 °C 8.4 °C 1001.2 hPa WNW 9.8 km/h 14.5 km/h 61.6% 0 mm 703 W/m2
14:19 15.6 °C 8.2 °C 1001.2 hPa WNW 6.4 km/h 14.5 km/h 61.6% 0 mm 714 W/m2
14:24 15.6 °C 8.3 °C 1001.2 hPa WNW 5.5 km/h 14.5 km/h 62% 0 mm 668 W/m2
14:29 15.3 °C 8 °C 1001.2 hPa NNW 8.7 km/h 16.1 km/h 61.6% 0 mm 148 W/m2
14:34 15 °C 7.8 °C 1001.2 hPa NW 7.9 km/h 12.9 km/h 62% 0 mm 163 W/m2
14:39 14.7 °C 7.3 °C 1001.2 hPa NW 6.6 km/h 12.9 km/h 61.2% 0 mm 169 W/m2
14:44 14.6 °C 7.5 °C 1001.2 hPa North 11.9 km/h 19.3 km/h 62.6% 0 mm 172 W/m2
14:49 14.2 °C 7.8 °C 1001.2 hPa North 10.3 km/h 20.9 km/h 65.4% 0 mm 165 W/m2
14:54 13.8 °C 7.8 °C 1001.2 hPa NNE 10.6 km/h 17.7 km/h 66.8% 0 mm 127 W/m2
14:59 13.8 °C 7.9 °C 1001.2 hPa North 7.7 km/h 17.7 km/h 67.2% 0 mm 91 W/m2
15:04 13.7 °C 7.7 °C 1001.2 hPa NNE 6.4 km/h 14.5 km/h 67.4% 0 mm 60 W/m2
15:09 13.6 °C 7.8 °C 1001.2 hPa NNE 5.1 km/h 11.3 km/h 68% 0 mm 98 W/m2
15:14 13.4 °C 7.7 °C 1001.2 hPa North 5.3 km/h 9.7 km/h 68.4% 0 mm 114 W/m2
15:19 13.3 °C 7.7 °C 1001.2 hPa NW 4.7 km/h 8 km/h 69% 0 mm 113 W/m2
15:24 13.3 °C 7.7 °C 1001.2 hPa WNW 6 km/h 9.7 km/h 69% 0 mm 121 W/m2
15:29 13.4 °C 7.8 °C 1001.2 hPa West 8.4 km/h 14.5 km/h 69.2% 0 mm 158 W/m2
15:34 13.1 °C 8.2 °C 1001.2 hPa West 10.1 km/h 17.7 km/h 71.5% 0 mm 167 W/m2
15:39 12.8 °C 8.1 °C 1001.2 hPa West 7.9 km/h 17.7 km/h 73.2% 0 mm 162 W/m2
15:44 12.6 °C 8.2 °C 1001.2 hPa West 9.3 km/h 16.1 km/h 74.6% 0 mm 155 W/m2
15:49 12.4 °C 8.2 °C 1001.2 hPa WNW 5.5 km/h 14.5 km/h 75.6% 0 mm 155 W/m2
15:54 12.3 °C 8.2 °C 1001.2 hPa West 9.7 km/h 14.5 km/h 76% 0 mm 162 W/m2
15:59 12.2 °C 8.2 °C 1001.2 hPa West 6 km/h 12.9 km/h 76.8% 0 mm 243 W/m2
16:04 12.3 °C 8.4 °C 1001.2 hPa WNW 2.7 km/h 9.7 km/h 77% 0 mm 394 W/m2
16:09 12.6 °C 8.7 °C 1001.2 hPa West 4.8 km/h 9.7 km/h 77% 0 mm 179 W/m2
16:14 12.7 °C 8.7 °C 1001.2 hPa West 5.1 km/h 9.7 km/h 77% 0 mm 144 W/m2
16:19 12.6 °C 8.6 °C 1001.2 hPa West 7.1 km/h 14.5 km/h 76.6% 0 mm 146 W/m2
16:24 12.6 °C 8.5 °C 1001.2 hPa WSW 10 km/h 14.5 km/h 76% 0 mm 149 W/m2
16:29 12.5 °C 8.4 °C 1001.2 hPa West 6.3 km/h 11.3 km/h 76% 0 mm 142 W/m2
16:34 12.4 °C 8.3 °C 1001.2 hPa WSW 7.2 km/h 12.9 km/h 76% 0 mm 176 W/m2
16:39 12.5 °C 8.4 °C 1001.2 hPa WSW 7.1 km/h 9.7 km/h 76.2% 0 mm 163 W/m2
16:44 12.6 °C 8.7 °C 1001.2 hPa WSW 5 km/h 9.7 km/h 77% 0 mm 125 W/m2
16:49 12.6 °C 8.7 °C 1001.2 hPa West 7.1 km/h 11.3 km/h 77% 0 mm 113 W/m2
16:54 12.6 °C 8.7 °C 1001.2 hPa West 5.5 km/h 11.3 km/h 77% 0 mm 102 W/m2
16:59 12.5 °C 8.7 °C 1001.2 hPa West 4 km/h 9.7 km/h 77.6% 0 mm 84 W/m2
17:04 12.5 °C 8.8 °C 1001.2 hPa West 5.3 km/h 11.3 km/h 78% 0 mm 72 W/m2
17:09 12.4 °C 8.7 °C 1001.2 hPa West 5.1 km/h 11.3 km/h 78% 0 mm 107 W/m2
17:14 12.4 °C 8.7 °C 1001.2 hPa West 8.4 km/h 16.1 km/h 78% 0 mm 223 W/m2
17:19 12.7 °C 8.8 °C 1001.2 hPa West 5.6 km/h 11.3 km/h 77.2% 0 mm 218 W/m2
17:24 13.1 °C 9.1 °C 1001.2 hPa West 7.2 km/h 11.3 km/h 76.8% 0 mm 218 W/m2
17:29 13.1 °C 8.8 °C 1001.2 hPa West 8.2 km/h 14.5 km/h 75.4% 0 mm 183 W/m2
17:34 12.9 °C 8.6 °C 1001.2 hPa West 7.1 km/h 16.1 km/h 75% 0 mm 77 W/m2
17:39 12.8 °C 8.5 °C 1001.2 hPa West 6.3 km/h 12.9 km/h 75% 0 mm 62 W/m2
17:44 12.7 °C 8.4 °C 1001.2 hPa West 6.9 km/h 14.5 km/h 75% 0 mm 33 W/m2
17:49 12.6 °C 8.4 °C 1001.2 hPa WNW 11.7 km/h 20.9 km/h 75.8% 0 mm 26 W/m2
17:54 12.3 °C 8.3 °C 1001.2 hPa WNW 9 km/h 19.3 km/h 76.6% 0 mm 25 W/m2
17:59 12.2 °C 8.3 °C 1001.2 hPa NW 8.9 km/h 17.7 km/h 77% 0 mm 25 W/m2
18:04 12 °C 8.1 °C 1001.2 hPa NW 10 km/h 19.3 km/h 77% 0 mm 23 W/m2
18:09 11.8 °C 8.1 °C 1001.2 hPa NNW 9.3 km/h 17.7 km/h 77.6% 0 mm 19 W/m2
18:14 11.7 °C 7.9 °C 1001.2 hPa WNW 6.8 km/h 17.7 km/h 78% 0 mm 18 W/m2
18:19 11.4 °C 7.8 °C 1001.2 hPa NW 6 km/h 17.7 km/h 78.2% 0 mm 16 W/m2
18:24 11.3 °C 7.8 °C 1001.2 hPa WNW 3.9 km/h 11.3 km/h 79% 0 mm 14 W/m2
18:29 11.3 °C 7.8 °C 1001.6 hPa WNW 2.9 km/h 8 km/h 79% 0 mm 12 W/m2
18:34 11.2 °C 7.7 °C 1001.6 hPa WNW 3.2 km/h 8 km/h 79% 0 mm 9 W/m2
18:39 11.1 °C 7.6 °C 1001.6 hPa West 3.7 km/h 8 km/h 79% 0 mm 5 W/m2
18:44 11.1 °C 7.8 °C 1001.6 hPa West 4 km/h 8 km/h 80% 0 mm 0 W/m2
18:49 10.9 °C 7.8 °C 1001.6 hPa West 4 km/h 8 km/h 80.8% 0 mm 0 W/m2
18:54 10.8 °C 7.8 °C 1001.6 hPa West 3.4 km/h 6.4 km/h 81.2% 0 mm 0 W/m2
18:59 10.8 °C 7.9 °C 1001.6 hPa West 3.9 km/h 6.4 km/h 82% 0 mm 0 W/m2
19:04 10.7 °C 7.8 °C 1001.6 hPa WSW 5.3 km/h 8 km/h 82.6% 0 mm 0 W/m2
19:09 10.6 °C 7.8 °C 1001.6 hPa WSW 2.6 km/h 6.4 km/h 83% 0 mm 0 W/m2
19:14 10.6 °C 7.9 °C 1001.6 hPa WSW 3.2 km/h 6.4 km/h 83.6% 0 mm 0 W/m2
19:19 10.6 °C 8 °C 1001.6 hPa WSW 2.4 km/h 4.8 km/h 84% 0 mm 0 W/m2
19:24 10.6 °C 7.9 °C 1001.6 hPa WSW 2.9 km/h 4.8 km/h 84% 0 mm 0 W/m2
19:29 10.4 °C 8 °C 1001.6 hPa WSW 3.4 km/h 4.8 km/h 84.6% 0 mm 0 W/m2
19:34 10.5 °C 8.1 °C 1001.6 hPa WSW 2.6 km/h 6.4 km/h 85% 0 mm 0 W/m2
19:39 10.4 °C 8 °C 1001.6 hPa WSW 2.1 km/h 6.4 km/h 85% 0 mm 0 W/m2
19:43 10.4 °C 8.1 °C 1001.6 hPa WSW 1.1 km/h 3.2 km/h 85% 0 mm 0 W/m2
19:49 10.5 °C 8.1 °C 1001.6 hPa WSW 1.1 km/h 3.2 km/h 85% 0 mm 0 W/m2
19:54 10.5 °C 8.1 °C 1001.6 hPa WSW 3.1 km/h 4.8 km/h 85% 0 mm 0 W/m2
19:59 10.5 °C 8.1 °C 1001.6 hPa WSW 1.3 km/h 4.8 km/h 85% 0 mm 0 W/m2
20:04 10.5 °C 8.1 °C 1001.6 hPa WSW 1.8 km/h 3.2 km/h 85% 0 mm 0 W/m2
20:09 10.5 °C 8.1 °C 1001.6 hPa WSW 0.3 km/h 3.2 km/h 85% 0 mm 0 W/m2
20:14 10.5 °C 8.1 °C 1001.6 hPa WSW 1.3 km/h 3.2 km/h 85% 0 mm 0 W/m2
20:19 10.4 °C 8 °C 1001.6 hPa WSW 0.3 km/h 3.2 km/h 85% 0 mm 0 W/m2
20:24 10.4 °C 8 °C 1001.6 hPa Calm   3.2 km/h 85% 0 mm 0 W/m2
20:29 10.4 °C 8 °C 1001.6 hPa WSW 0.6 km/h 3.2 km/h 85% 0 mm 0 W/m2
20:34 10.4 °C 8 °C 1001.6 hPa WSW 0.8 km/h 4.8 km/h 85% 0 mm 0 W/m2
20:39 10.3 °C 7.9 °C 1001.6 hPa WSW 0.3 km/h 3.2 km/h 85% 0 mm 0 W/m2
20:44 10.4 °C 7.9 °C 1001.6 hPa WSW 0.3 km/h 3.2 km/h 85% 0 mm 0 W/m2
20:49 10.4 °C 8 °C 1001.6 hPa WSW 1.1 km/h 4.8 km/h 85% 0 mm 0 W/m2
20:54 10.3 °C 7.9 °C 1001.6 hPa WSW 1.1 km/h 3.2 km/h 85% 0 mm 0 W/m2
20:59 10.2 °C 7.8 °C 1001.9 hPa WSW 0.8 km/h 3.2 km/h 85% 0 mm 0 W/m2
21:04 10.2 °C 7.8 °C 1001.6 hPa Calm   3.2 km/h 85% 0 mm 0 W/m2
21:09 10.2 °C 7.8 °C 1001.9 hPa Calm   1.6 km/h 85% 0 mm 0 W/m2
21:14 10.2 °C 7.8 °C 1001.9 hPa Calm   1.6 km/h 85% 0 mm 0 W/m2
21:19 10.2 °C 7.8 °C 1001.9 hPa Calm   1.6 km/h 85% 0 mm 0 W/m2
21:24 10.2 °C 7.8 °C 1001.9 hPa WSW 0.3 km/h 1.6 km/h 85% 0 mm 0 W/m2
21:29 10.2 °C 7.8 °C 1001.9 hPa Calm   1.6 km/h 85% 0 mm 0 W/m2
21:34 10.1 °C 7.7 °C 1001.9 hPa WSW 0.3 km/h 1.6 km/h 85% 0 mm 0 W/m2
21:39 10.1 °C 7.7 °C 1001.9 hPa WSW 0.3 km/h 3.2 km/h 85% 0 mm 0 W/m2
21:44 10.1 °C 7.7 °C 1001.9 hPa Calm   3.2 km/h 85% 0 mm 0 W/m2
21:49 10.1 °C 7.7 °C 1001.9 hPa Calm   1.6 km/h 85% 0 mm 0 W/m2
21:54 10.2 °C 7.8 °C 1001.9 hPa Calm   1.6 km/h 85% 0 mm 0 W/m2
21:58 10.2 °C 7.8 °C 1001.9 hPa Calm   1.6 km/h 85% 0 mm 0 W/m2
22:04 10.2 °C 7.8 °C 1001.9 hPa Calm     85% 0 mm 0 W/m2
22:09 10.2 °C 7.8 °C 1001.9 hPa Calm     85% 0 mm 0 W/m2
22:14 10.2 °C 7.8 °C 1001.9 hPa Calm     85% 0 mm 0 W/m2
22:19 10.2 °C 7.8 °C 1001.9 hPa WSW 1.3 km/h 3.2 km/h 85% 0 mm 0 W/m2
22:24 10.2 °C 7.8 °C 1001.9 hPa WSW 0.3 km/h 1.6 km/h 85% 0 mm 0 W/m2
22:29 10.2 °C 7.8 °C 1001.9 hPa WSW 0.8 km/h 1.6 km/h 85% 0 mm 0 W/m2
22:34 10.2 °C 7.7 °C 1001.9 hPa WSW 1.8 km/h 3.2 km/h 84.8% 0 mm 0 W/m2
22:39 9.9 °C 7.4 °C 1001.9 hPa WSW 0.6 km/h 3.2 km/h 84.2% 0 mm 0 W/m2
22:44 9.8 °C 7.4 °C 1001.9 hPa Calm   3.2 km/h 85% 0 mm 0 W/m2
22:49 9.7 °C 7.2 °C 1001.9 hPa Calm   1.6 km/h 85% 0 mm 0 W/m2
22:54 9.4 °C 7.1 °C 1001.9 hPa WSW 0.8 km/h 4.8 km/h 85% 0 mm 0 W/m2
22:59 9.3 °C 6.9 °C 1001.9 hPa Calm   3.2 km/h 85% 0 mm 0 W/m2
23:04 9.2 °C 6.8 °C 1001.9 hPa Calm     85% 0 mm 0 W/m2
23:08 9.2 °C 6.8 °C 1001.9 hPa Calm   1.6 km/h 85% 0 mm 0 W/m2
23:14 9.1 °C 6.7 °C 1002.3 hPa Calm     85% 0 mm 0 W/m2
23:19 8.8 °C 6.4 °C 1001.9 hPa WSW 0.3 km/h 1.6 km/h 85% 0 mm 0 W/m2
23:24 8.7 °C 6.5 °C 1001.9 hPa Calm   1.6 km/h 86% 0 mm 0 W/m2
23:29 8.5 °C 6.3 °C 1001.9 hPa WSW 0.3 km/h 1.6 km/h 86% 0 mm 0 W/m2
23:34 8.4 °C 6.2 °C 1001.9 hPa WSW 1.4 km/h 3.2 km/h 86% 0 mm 0 W/m2
23:39 8.3 °C 6.1 °C 1002.3 hPa WSW 0.3 km/h 3.2 km/h 86% 0 mm 0 W/m2
23:44 8.1 °C 5.8 °C 1001.9 hPa WSW 1.8 km/h 3.2 km/h 86% 0 mm 0 W/m2
23:49 7.9 °C 5.8 °C 1001.9 hPa WSW 0.6 km/h 3.2 km/h 86.4% 0 mm 0 W/m2
23:54 7.9 °C 5.9 °C 1001.9 hPa WSW 0.6 km/h 3.2 km/h 87% 0 mm 0 W/m2
23:59 7.8 °C 5.8 °C 1001.9 hPa WSW 0.3 km/h 1.6 km/h 87% 0 mm 0 W/m2
Bath Spa Weather
Compliments of Weather Underground - 2 mb